createdAt,value
2023-05-08T00:00:08.843Z,8.67
2023-05-08T00:01:10.476Z,8.97
2023-05-08T00:02:12.019Z,9.33
2023-05-08T00:03:13.653Z,8.77
2023-05-08T00:04:15.631Z,8.73
2023-05-08T00:05:17.752Z,8.60
2023-05-08T00:06:19.407Z,9.13
2023-05-08T00:07:20.953Z,8.47
2023-05-08T00:08:23.077Z,8.60
2023-05-08T00:09:24.615Z,9.23
2023-05-08T00:10:27.622Z,9.27
2023-05-08T00:11:29.180Z,9.07
2023-05-08T00:12:30.822Z,9.30
2023-05-08T00:13:32.380Z,9.13
2023-05-08T00:14:33.989Z,9.17
2023-05-08T00:15:36.504Z,9.80
2023-05-08T00:16:38.173Z,9.23
2023-05-08T00:17:39.955Z,9.50
2023-05-08T00:18:41.633Z,9.20
2023-05-08T00:19:43.283Z,8.70
2023-05-08T00:20:44.905Z,9.57
2023-05-08T00:21:46.558Z,9.13
2023-05-08T00:22:48.081Z,9.60
2023-05-08T00:23:49.642Z,9.20
2023-05-08T00:24:51.188Z,8.70
2023-05-08T00:25:52.815Z,8.90
2023-05-08T00:26:54.351Z,9.07
2023-05-08T00:27:55.904Z,8.63
2023-05-08T00:28:57.554Z,8.17
2023-05-08T00:29:59.242Z,9.50
2023-05-08T00:31:02.106Z,8.93
2023-05-08T00:32:03.768Z,8.90
2023-05-08T00:33:05.385Z,8.47
2023-05-08T00:34:06.994Z,8.97
2023-05-08T00:35:08.739Z,9.37
2023-05-08T00:36:10.320Z,8.80
2023-05-08T00:37:11.868Z,8.90
2023-05-08T00:38:13.507Z,9.37
2023-05-08T00:39:15.089Z,9.33
2023-05-08T00:40:16.682Z,8.60
2023-05-08T00:41:18.279Z,9.13
2023-05-08T00:42:20.029Z,8.20
2023-05-08T00:43:28.048Z,8.77
2023-05-08T00:44:29.643Z,8.30
2023-05-08T00:45:37.814Z,8.53
2023-05-08T00:46:40.985Z,8.53
2023-05-08T00:47:43.080Z,7.97
2023-05-08T00:48:46.428Z,8.70
2023-05-08T00:49:48.836Z,8.37
2023-05-08T00:50:53.006Z,8.87
2023-05-08T00:51:56.030Z,8.47
2023-05-08T00:53:00.384Z,8.57
2023-05-08T00:54:02.394Z,8.73
2023-05-08T00:55:05.306Z,9.10
2023-05-08T00:56:14.290Z,8.97
2023-05-08T00:57:16.877Z,8.90
2023-05-08T00:58:20.702Z,8.90
2023-05-08T00:59:23.077Z,9.13
2023-05-08T01:00:25.106Z,9.47
2023-05-08T01:01:27.034Z,8.67
2023-05-08T01:02:31.471Z,8.80
2023-05-08T01:03:36.300Z,8.93
2023-05-08T01:04:39.342Z,8.57
2023-05-08T01:05:41.647Z,9.43
2023-05-08T01:06:43.283Z,9.57
2023-05-08T01:07:45.648Z,9.60
2023-05-08T01:08:47.226Z,9.60
2023-05-08T01:09:49.233Z,8.97
2023-05-08T01:11:09.421Z,9.20
2023-05-08T01:12:22.851Z,9.37
2023-05-08T01:14:07.878Z,8.87
2023-05-08T01:15:14.030Z,9.60
2023-05-08T01:16:16.615Z,8.70
2023-05-08T01:17:33.292Z,8.90
2023-05-08T01:18:46.132Z,8.87
2023-05-08T01:20:06.082Z,9.37
2023-05-08T01:21:27.165Z,10.00
2023-05-08T01:22:56.299Z,9.27
2023-05-08T01:24:36.026Z,8.07
2023-05-08T01:25:46.862Z,9.07
2023-05-08T01:27:03.889Z,8.30
2023-05-08T01:28:30.341Z,8.77
2023-05-08T01:30:05.032Z,8.63
2023-05-08T01:31:26.275Z,8.00
2023-05-08T01:32:35.163Z,8.87
2023-05-08T01:33:48.489Z,9.27
2023-05-08T01:34:55.702Z,9.30
2023-05-08T01:36:06.562Z,9.17
2023-05-08T01:37:12.703Z,8.63
2023-05-08T01:38:28.069Z,8.90
2023-05-08T01:40:02.614Z,8.67
2023-05-08T01:41:14.294Z,8.43
2023-05-08T01:42:26.530Z,7.83
2023-05-08T01:43:52.327Z,8.23
2023-05-08T01:45:18.882Z,9.07
2023-05-08T01:46:27.019Z,7.53
2023-05-08T01:47:33.180Z,7.90
2023-05-08T01:48:39.226Z,7.60
2023-05-08T01:49:45.731Z,7.30
2023-05-08T01:50:51.638Z,7.77
2023-05-08T01:51:59.491Z,8.37
2023-05-08T01:53:12.729Z,8.63
2023-05-08T01:54:24.341Z,7.87
2023-05-08T01:55:32.081Z,8.40
2023-05-08T01:56:35.527Z,9.37
2023-05-08T01:57:42.507Z,9.47
2023-05-08T01:58:45.763Z,8.70
2023-05-08T01:59:49.490Z,9.10
2023-05-08T02:00:51.560Z,8.77
2023-05-08T02:01:57.174Z,9.17
2023-05-08T02:02:59.640Z,8.47
2023-05-08T02:04:03.026Z,8.93
2023-05-08T02:05:06.818Z,8.97
2023-05-08T02:06:10.182Z,8.30
2023-05-08T02:07:11.991Z,8.60
2023-05-08T02:08:15.743Z,8.97
2023-05-08T02:09:19.996Z,8.90
2023-05-08T02:10:25.175Z,9.80
2023-05-08T02:11:27.829Z,8.57
2023-05-08T02:12:32.197Z,9.37
2023-05-08T02:13:35.705Z,8.90
2023-05-08T02:14:38.580Z,8.93
2023-05-08T02:15:42.098Z,9.27
2023-05-08T02:16:45.094Z,9.13
2023-05-08T02:17:49.656Z,9.10
2023-05-08T02:18:56.347Z,9.50
2023-05-08T02:20:00.972Z,9.70
2023-05-08T02:21:05.453Z,8.97
2023-05-08T02:22:08.708Z,8.70
2023-05-08T02:23:11.942Z,9.10
2023-05-08T02:24:14.726Z,9.10
2023-05-08T02:25:16.877Z,9.57
2023-05-08T02:26:21.446Z,9.27
2023-05-08T02:27:26.657Z,9.33
2023-05-08T02:28:30.008Z,9.53
2023-05-08T02:29:32.307Z,8.63
2023-05-08T02:30:35.001Z,9.60
2023-05-08T02:31:38.853Z,10.13
2023-05-08T02:32:45.681Z,9.83
2023-05-08T02:33:48.684Z,9.53
2023-05-08T02:35:02.004Z,9.60
2023-05-08T02:36:06.183Z,9.23
2023-05-08T02:37:08.577Z,8.93
2023-05-08T02:38:11.988Z,9.73
2023-05-08T02:39:15.211Z,9.03
2023-05-08T02:40:18.716Z,9.03
2023-05-08T02:41:23.063Z,8.80
2023-05-08T02:42:25.211Z,9.77
2023-05-08T02:43:27.384Z,9.20
2023-05-08T02:44:29.088Z,9.47
2023-05-08T02:45:37.073Z,10.07
2023-05-08T02:46:47.986Z,10.07
2023-05-08T02:48:10.868Z,9.73
2023-05-08T02:49:29.394Z,10.30
2023-05-08T02:50:41.896Z,10.13
2023-05-08T02:51:43.376Z,10.10
2023-05-08T02:52:49.975Z,10.27
2023-05-08T02:54:09.229Z,11.07
2023-05-08T02:55:21.063Z,10.50
2023-05-08T02:57:01.412Z,9.90
2023-05-08T02:58:12.579Z,10.97
2023-05-08T02:59:21.757Z,10.53
2023-05-08T03:00:29.170Z,11.73
2023-05-08T03:01:43.582Z,11.13
2023-05-08T03:02:56.193Z,11.13
2023-05-08T03:04:04.610Z,10.93
2023-05-08T03:05:30.665Z,10.40
2023-05-08T03:06:38.729Z,9.97
2023-05-08T03:07:41.857Z,10.27
2023-05-08T03:08:44.932Z,10.13
2023-05-08T03:09:50.769Z,10.10
2023-05-08T03:10:55.617Z,9.93
2023-05-08T03:12:06.446Z,10.23
2023-05-08T03:13:11.167Z,9.83
2023-05-08T03:14:15.916Z,10.13
2023-05-08T03:15:44.765Z,9.77
2023-05-08T03:16:51.070Z,10.07
2023-05-08T03:17:59.043Z,10.70
2023-05-08T03:19:03.803Z,10.37
2023-05-08T03:20:08.209Z,10.23
2023-05-08T03:21:13.237Z,10.90
2023-05-08T03:22:16.432Z,10.43
2023-05-08T03:23:20.835Z,10.43
2023-05-08T03:24:24.546Z,11.17
2023-05-08T03:25:27.868Z,11.53
2023-05-08T03:26:29.871Z,11.10
2023-05-08T03:27:33.217Z,11.57
2023-05-08T03:28:36.495Z,11.67
2023-05-08T03:29:39.884Z,11.20
2023-05-08T03:30:42.243Z,12.33
2023-05-08T03:31:45.194Z,10.77
2023-05-08T03:32:48.058Z,11.07
2023-05-08T03:33:53.982Z,11.20
2023-05-08T03:34:58.620Z,11.03
2023-05-08T03:36:00.211Z,11.03
2023-05-08T03:37:01.946Z,10.67
2023-05-08T03:38:04.499Z,10.87
2023-05-08T03:39:06.289Z,10.90
2023-05-08T03:40:09.790Z,11.40
2023-05-08T03:41:12.259Z,10.87
2023-05-08T03:42:21.475Z,10.47
2023-05-08T03:43:23.459Z,10.87
2023-05-08T03:44:26.101Z,11.03
2023-05-08T03:45:28.760Z,10.67
2023-05-08T03:46:33.105Z,10.50
2023-05-08T03:47:36.120Z,9.90
2023-05-08T03:48:38.800Z,10.50
2023-05-08T03:49:40.460Z,10.57
2023-05-08T03:50:42.456Z,10.33
2023-05-08T03:51:44.789Z,10.37
2023-05-08T03:52:46.571Z,10.37
2023-05-08T03:53:48.144Z,10.40
2023-05-08T03:54:49.640Z,10.17
2023-05-08T03:55:51.292Z,10.43
2023-05-08T03:56:54.719Z,10.17
2023-05-08T03:58:31.508Z,10.93
2023-05-08T03:59:52.300Z,10.53
2023-05-08T04:01:09.064Z,10.10
2023-05-08T04:02:16.492Z,9.57
2023-05-08T04:03:41.496Z,9.63
2023-05-08T04:04:47.367Z,10.50
2023-05-08T04:06:01.208Z,10.43
2023-05-08T04:07:08.578Z,10.33
2023-05-08T04:08:17.187Z,10.20
2023-05-08T04:09:31.710Z,9.83
2023-05-08T04:10:42.384Z,10.43
2023-05-08T04:11:50.557Z,10.23
2023-05-08T04:12:57.901Z,10.07
2023-05-08T04:14:03.869Z,9.20
2023-05-08T04:15:11.637Z,9.97
2023-05-08T04:16:26.997Z,9.83
2023-05-08T04:17:36.734Z,9.50
2023-05-08T04:18:44.271Z,10.47
2023-05-08T04:19:47.212Z,10.23
2023-05-08T04:20:53.782Z,9.90
2023-05-08T04:21:59.495Z,10.10
2023-05-08T04:23:02.443Z,10.07
2023-05-08T04:24:07.173Z,9.83
2023-05-08T04:25:11.288Z,10.03
2023-05-08T04:26:16.653Z,10.57
2023-05-08T04:27:18.857Z,10.07
2023-05-08T04:28:21.684Z,9.83
2023-05-08T04:29:24.288Z,10.60
2023-05-08T04:30:26.215Z,10.17
2023-05-08T04:31:28.343Z,10.93
2023-05-08T04:32:31.607Z,10.47
2023-05-08T04:33:35.385Z,9.83
2023-05-08T04:34:37.241Z,10.17
2023-05-08T04:35:38.842Z,10.30
2023-05-08T04:36:40.602Z,11.00
2023-05-08T04:37:43.577Z,10.53
2023-05-08T04:38:45.218Z,11.43
2023-05-08T04:39:51.082Z,10.73
2023-05-08T04:40:52.638Z,10.63
2023-05-08T04:41:55.771Z,11.70
2023-05-08T04:42:57.561Z,11.47
2023-05-08T04:43:59.378Z,12.00
2023-05-08T04:45:01.355Z,12.27
2023-05-08T04:46:05.799Z,11.30
2023-05-08T04:47:07.419Z,12.30
2023-05-08T04:48:08.998Z,11.80
2023-05-08T04:49:10.642Z,11.57
2023-05-08T04:50:12.418Z,11.83
2023-05-08T04:51:13.988Z,11.53
2023-05-08T04:52:15.966Z,11.33
2023-05-08T04:53:17.468Z,11.43
2023-05-08T04:54:19.037Z,11.70
2023-05-08T04:55:20.599Z,13.30
2023-05-08T04:56:22.164Z,11.90
2023-05-08T04:57:23.750Z,11.40
2023-05-08T04:58:25.388Z,12.10
2023-05-08T04:59:27.233Z,12.07
2023-05-08T05:00:28.798Z,11.73
2023-05-08T05:01:30.468Z,11.87
2023-05-08T05:02:32.109Z,12.13
2023-05-08T05:03:33.715Z,12.63
2023-05-08T05:04:36.590Z,11.90
2023-05-08T05:05:38.982Z,12.17
2023-05-08T05:06:41.105Z,12.37
2023-05-08T05:07:42.753Z,12.27
2023-05-08T05:08:44.293Z,11.93
2023-05-08T05:09:46.074Z,12.17
2023-05-08T05:10:47.629Z,11.83
2023-05-08T05:11:49.202Z,12.20
2023-05-08T05:12:50.809Z,11.80
2023-05-08T05:13:52.372Z,12.60
2023-05-08T05:14:53.984Z,12.03
2023-05-08T05:15:56.271Z,12.77
2023-05-08T05:16:58.366Z,13.13
2023-05-08T05:17:59.949Z,12.00
2023-05-08T05:19:01.550Z,12.57
2023-05-08T05:20:03.644Z,12.10
2023-05-08T05:21:05.204Z,11.63
2023-05-08T05:22:08.169Z,12.50
2023-05-08T05:23:09.729Z,10.93
2023-05-08T05:24:11.347Z,11.60
2023-05-08T05:25:13.098Z,11.80
2023-05-08T05:26:14.800Z,12.00
2023-05-08T05:27:16.348Z,11.97
2023-05-08T05:28:17.889Z,10.80
2023-05-08T05:29:19.581Z,12.30
2023-05-08T05:30:21.384Z,10.37
2023-05-08T05:31:23.085Z,10.80
2023-05-08T05:32:24.683Z,11.03
2023-05-08T05:33:26.270Z,11.63
2023-05-08T05:34:27.834Z,10.40
2023-05-08T05:35:29.415Z,10.37
2023-05-08T05:36:30.913Z,10.47
2023-05-08T05:37:32.464Z,12.03
2023-05-08T05:38:34.067Z,12.03
2023-05-08T05:39:36.331Z,12.27
2023-05-08T05:40:38.024Z,11.47
2023-05-08T05:41:39.647Z,11.57
2023-05-08T05:42:41.240Z,11.90
2023-05-08T05:43:42.789Z,11.57
2023-05-08T05:44:44.307Z,11.87
2023-05-08T05:45:45.822Z,11.40
2023-05-08T05:46:47.521Z,11.20
2023-05-08T05:47:50.091Z,11.30
2023-05-08T05:48:51.922Z,10.93
2023-05-08T05:49:53.425Z,11.60
2023-05-08T05:50:55.026Z,10.55
2023-05-08T05:51:56.880Z,10.48
2023-05-08T05:52:58.386Z,10.80
2023-05-08T05:54:00.056Z,10.82
2023-05-08T05:55:01.636Z,11.18
2023-05-08T05:56:03.229Z,11.07
2023-05-08T05:57:05.333Z,11.07
2023-05-08T05:58:07.001Z,10.95
2023-05-08T05:59:08.833Z,10.80
2023-05-08T06:00:11.376Z,10.23
2023-05-08T06:01:12.978Z,10.90
2023-05-08T06:02:18.648Z,10.45
2023-05-08T06:03:22.482Z,10.00
2023-05-08T06:04:24.179Z,9.93
2023-05-08T06:05:25.938Z,10.32
2023-05-08T06:06:27.694Z,9.85
2023-05-08T06:07:29.322Z,9.88
2023-05-08T06:08:30.949Z,8.82
2023-05-08T06:09:32.470Z,8.85
2023-05-08T06:10:34.561Z,8.95
2023-05-08T06:11:36.443Z,9.55
2023-05-08T06:12:38.012Z,8.55
2023-05-08T06:13:40.904Z,8.10
2023-05-08T06:14:42.390Z,8.55
2023-05-08T06:15:44.008Z,8.48
2023-05-08T06:16:45.560Z,8.38
2023-05-08T06:17:47.252Z,8.15
2023-05-08T06:18:48.937Z,8.15
2023-05-08T06:19:53.974Z,8.50
2023-05-08T06:20:59.092Z,8.30
2023-05-08T06:22:00.761Z,8.90
2023-05-08T06:23:02.445Z,8.38
2023-05-08T06:24:04.159Z,8.50
2023-05-08T06:25:09.710Z,8.55
2023-05-08T06:26:11.430Z,8.30
2023-05-08T06:27:12.974Z,8.60
2023-05-08T06:28:14.516Z,8.25
2023-05-08T06:29:16.089Z,7.80
2023-05-08T06:30:17.658Z,7.50
2023-05-08T06:31:19.265Z,7.38
2023-05-08T06:32:21.339Z,7.35
2023-05-08T06:33:25.428Z,7.30
2023-05-08T06:34:28.252Z,7.18
2023-05-08T06:35:29.774Z,6.70
2023-05-08T06:36:31.840Z,6.60
2023-05-08T06:37:33.477Z,6.68
2023-05-08T06:38:35.050Z,6.95
2023-05-08T06:39:36.827Z,6.35
2023-05-08T06:40:42.461Z,6.15
2023-05-08T06:41:47.814Z,5.80
2023-05-08T06:42:49.478Z,6.18
2023-05-08T06:43:51.086Z,6.22
2023-05-08T06:44:53.740Z,6.43
2023-05-08T06:45:55.323Z,7.38
2023-05-08T06:46:56.984Z,8.30
2023-05-08T06:47:58.653Z,7.25
2023-05-08T06:49:00.242Z,7.03
2023-05-08T06:50:01.857Z,7.53
2023-05-08T06:51:03.706Z,14.13
2023-05-08T06:52:05.338Z,7.80
2023-05-08T06:53:08.091Z,6.85
2023-05-08T06:54:09.650Z,6.72
2023-05-08T06:55:11.737Z,6.13
2023-05-08T06:56:13.469Z,7.50
2023-05-08T06:57:16.253Z,6.32
2023-05-08T06:58:17.793Z,6.18
2023-05-08T06:59:19.344Z,5.88
2023-05-08T07:00:21.215Z,5.82
2023-05-08T07:01:22.842Z,6.13
2023-05-08T07:02:24.480Z,6.45
2023-05-08T07:03:26.196Z,6.28
2023-05-08T07:05:29.760Z,5.97
2023-05-08T07:06:31.394Z,12.65
2023-05-08T07:07:32.944Z,7.82
2023-05-08T07:08:34.645Z,11.77
2023-05-08T07:09:36.275Z,6.25
2023-05-08T07:10:37.820Z,5.43
2023-05-08T07:11:39.377Z,5.53
2023-05-08T07:12:41.320Z,5.20
2023-05-08T07:13:43.584Z,4.65
2023-05-08T07:14:45.667Z,4.38
2023-05-08T07:15:47.356Z,5.15
2023-05-08T07:16:48.937Z,4.85
2023-05-08T07:17:50.615Z,4.65
2023-05-08T07:18:52.649Z,4.93
2023-05-08T07:19:54.187Z,4.82
2023-05-08T07:20:55.711Z,5.20
2023-05-08T07:21:57.321Z,4.47
2023-05-08T07:22:58.868Z,4.38
2023-05-08T07:24:00.469Z,4.80
2023-05-08T07:25:02.196Z,13.52
2023-05-08T07:26:03.842Z,4.43
2023-05-08T07:27:05.405Z,4.78
2023-05-08T07:28:08.116Z,4.65
2023-05-08T07:29:09.748Z,4.72
2023-05-08T07:30:11.525Z,4.68
2023-05-08T07:31:13.113Z,4.68
2023-05-08T07:32:15.428Z,4.47
2023-05-08T07:33:17.373Z,4.65
2023-05-08T07:34:19.230Z,4.38
2023-05-08T07:35:20.788Z,4.10
2023-05-08T07:36:22.866Z,4.47
2023-05-08T07:37:24.625Z,4.70
2023-05-08T07:38:26.405Z,5.00
2023-05-08T07:39:27.971Z,4.65
2023-05-08T07:40:29.471Z,4.65
2023-05-08T07:41:31.070Z,3.95
2023-05-08T07:42:38.767Z,4.40
2023-05-08T07:43:40.618Z,4.93
2023-05-08T07:44:53.774Z,4.47
2023-05-08T07:45:57.175Z,4.03
2023-05-08T07:46:58.955Z,4.05
2023-05-08T07:48:00.724Z,4.07
2023-05-08T07:49:02.452Z,4.47
2023-05-08T07:50:04.812Z,4.55
2023-05-08T07:51:06.337Z,4.15
2023-05-08T07:52:07.876Z,4.35
2023-05-08T07:53:09.401Z,3.80
2023-05-08T07:54:10.968Z,3.70
2023-05-08T07:55:15.572Z,4.05
2023-05-08T07:56:17.171Z,4.10
2023-05-08T07:57:18.688Z,4.28
2023-05-08T07:58:21.626Z,4.10
2023-05-08T07:59:25.022Z,4.30
2023-05-08T08:00:29.929Z,4.10
2023-05-08T08:01:31.636Z,4.20
2023-05-08T08:02:33.359Z,4.20
2023-05-08T08:03:35.000Z,4.00
2023-05-08T08:04:36.743Z,4.35
2023-05-08T08:05:38.370Z,3.90
2023-05-08T08:06:40.358Z,6.45
2023-05-08T08:07:41.923Z,5.18
2023-05-08T08:08:43.438Z,4.30
2023-05-08T08:09:44.984Z,4.22
2023-05-08T08:10:46.555Z,4.15
2023-05-08T08:11:48.127Z,3.78
2023-05-08T08:12:49.726Z,4.22
2023-05-08T08:13:51.293Z,3.83
2023-05-08T08:14:52.979Z,4.38
2023-05-08T08:15:54.565Z,37.60
2023-05-08T08:16:56.094Z,5.88
2023-05-08T08:17:57.813Z,4.07
2023-05-08T08:19:00.065Z,3.90
2023-05-08T08:20:01.717Z,3.88
2023-05-08T08:21:06.814Z,3.50
2023-05-08T08:22:08.351Z,3.60
2023-05-08T08:23:10.044Z,3.58
2023-05-08T08:24:12.324Z,4.03
2023-05-08T08:25:14.143Z,12.38
2023-05-08T08:26:15.915Z,6.68
2023-05-08T08:27:17.548Z,3.10
2023-05-08T08:28:19.858Z,3.60
2023-05-08T08:29:21.544Z,3.60
2023-05-08T08:30:23.158Z,4.10
2023-05-08T08:31:24.909Z,3.83
2023-05-08T08:32:26.582Z,3.85
2023-05-08T08:33:29.558Z,3.60
2023-05-08T08:34:33.769Z,5.97
2023-05-08T08:35:35.532Z,3.40
2023-05-08T08:36:37.229Z,3.42
2023-05-08T08:37:38.780Z,3.72
2023-05-08T08:38:40.544Z,3.63
2023-05-08T08:39:42.109Z,3.70
2023-05-08T08:40:43.707Z,3.42
2023-05-08T08:41:45.302Z,3.95
2023-05-08T08:42:47.372Z,3.80
2023-05-08T08:43:49.137Z,4.20
2023-05-08T08:44:51.317Z,3.83
2023-05-08T08:45:53.099Z,3.40
2023-05-08T08:46:55.748Z,3.70
2023-05-08T08:48:01.965Z,5.32
2023-05-08T08:49:05.019Z,3.97
2023-05-08T08:50:11.292Z,3.58
2023-05-08T08:51:31.378Z,3.65
2023-05-08T08:53:06.787Z,3.30
2023-05-08T08:54:13.563Z,3.78
2023-05-08T08:55:18.059Z,3.72
2023-05-08T08:56:23.673Z,3.40
2023-05-08T08:57:28.749Z,3.95
2023-05-08T08:58:39.044Z,3.92
2023-05-08T08:59:43.152Z,3.22
2023-05-08T09:00:45.410Z,3.80
2023-05-08T09:01:56.437Z,3.80
2023-05-08T09:02:58.626Z,3.63
2023-05-08T09:04:00.980Z,3.67
2023-05-08T09:05:03.983Z,3.67
2023-05-08T09:06:06.629Z,3.72
2023-05-08T09:07:09.605Z,3.60
2023-05-08T09:08:12.782Z,3.92
2023-05-08T09:09:14.389Z,13.27
2023-05-08T09:10:16.098Z,11.32
2023-05-08T09:11:17.624Z,6.68
2023-05-08T09:12:19.219Z,12.82
2023-05-08T09:13:20.819Z,11.13
2023-05-08T09:14:24.475Z,4.28
2023-05-08T09:15:26.078Z,3.22
2023-05-08T09:16:28.519Z,3.53
2023-05-08T09:17:30.329Z,3.67
2023-05-08T09:18:31.975Z,3.70
2023-05-08T09:19:33.853Z,3.55
2023-05-08T09:20:35.753Z,4.40
2023-05-08T09:21:37.760Z,3.25
2023-05-08T09:22:40.632Z,4.03
2023-05-08T09:24:02.629Z,7.03
2023-05-08T09:25:04.706Z,3.97
2023-05-08T09:26:06.305Z,3.60
2023-05-08T09:27:22.221Z,3.97
2023-05-08T09:28:26.877Z,4.00
2023-05-08T09:29:28.443Z,3.88
2023-05-08T09:30:29.998Z,3.97
2023-05-08T09:31:40.596Z,4.20
2023-05-08T09:32:44.540Z,3.88
2023-05-08T09:33:46.177Z,3.95
2023-05-08T09:34:52.632Z,3.78
2023-05-08T09:35:58.136Z,4.38
2023-05-08T09:37:05.549Z,4.40
2023-05-08T09:38:07.218Z,4.38
2023-05-08T09:39:12.665Z,4.30
2023-05-08T09:40:19.898Z,4.40
2023-05-08T09:41:23.362Z,4.18
2023-05-08T09:42:37.270Z,3.80
2023-05-08T09:43:39.545Z,3.65
2023-05-08T09:44:51.348Z,3.92
2023-05-08T09:45:52.875Z,4.30
2023-05-08T09:47:14.921Z,4.15
2023-05-08T09:48:16.606Z,4.15
2023-05-08T09:49:18.931Z,3.95
2023-05-08T09:50:20.493Z,4.97
2023-05-08T09:51:23.267Z,4.53
2023-05-08T09:52:26.370Z,4.88
2023-05-08T09:53:32.483Z,4.03
2023-05-08T09:54:34.384Z,4.50
2023-05-08T09:55:48.375Z,4.57
2023-05-08T09:56:50.007Z,4.60
2023-05-08T09:57:57.217Z,4.93
2023-05-08T09:58:58.789Z,4.35
2023-05-08T10:00:06.113Z,4.82
2023-05-08T10:01:09.179Z,5.97
2023-05-08T10:02:12.241Z,5.82
2023-05-08T10:03:14.030Z,5.53
2023-05-08T10:04:15.967Z,6.28
2023-05-08T10:05:23.573Z,6.30
2023-05-08T10:06:25.759Z,5.97
2023-05-08T10:07:31.556Z,6.10
2023-05-08T10:08:33.099Z,6.38
2023-05-08T10:09:46.912Z,6.57
2023-05-08T10:10:51.804Z,6.10
2023-05-08T10:11:55.483Z,6.03
2023-05-08T10:12:58.738Z,5.93
2023-05-08T10:14:01.208Z,6.03
2023-05-08T10:15:02.725Z,5.75
2023-05-08T10:16:05.118Z,5.63
2023-05-08T10:17:10.314Z,5.72
2023-05-08T10:18:13.130Z,5.68
2023-05-08T10:19:17.371Z,6.15
2023-05-08T10:20:21.625Z,5.88
2023-05-08T10:21:28.528Z,5.50
2023-05-08T10:22:33.689Z,5.45
2023-05-08T10:23:37.849Z,5.93
2023-05-08T10:24:41.729Z,5.78
2023-05-08T10:25:48.281Z,5.63
2023-05-08T10:27:05.686Z,5.82
2023-05-08T10:28:33.099Z,6.13
2023-05-08T10:29:43.064Z,5.97
2023-05-08T10:30:48.902Z,6.40
2023-05-08T10:31:54.426Z,6.60
2023-05-08T10:32:59.285Z,6.15
2023-05-08T10:34:02.580Z,6.40
2023-05-08T10:35:08.726Z,6.03
2023-05-08T10:36:11.134Z,6.28
2023-05-08T10:37:13.129Z,5.95
2023-05-08T10:38:16.541Z,6.10
2023-05-08T10:39:18.185Z,5.65
2023-05-08T10:40:21.447Z,5.50
2023-05-08T10:41:23.955Z,5.93
2023-05-08T10:42:26.093Z,5.78
2023-05-08T10:43:33.539Z,5.72
2023-05-08T10:44:35.362Z,6.40
2023-05-08T10:45:37.592Z,6.25
2023-05-08T10:47:16.173Z,5.68
2023-05-08T10:49:02.508Z,6.13
2023-05-08T10:50:19.156Z,6.00
2023-05-08T10:51:44.209Z,6.55
2023-05-08T10:53:07.022Z,5.95
2023-05-08T10:54:08.502Z,6.20
2023-05-08T10:55:25.222Z,6.57
2023-05-08T10:56:27.696Z,5.55
2023-05-08T10:57:29.353Z,6.95
2023-05-08T10:58:41.019Z,6.53
2023-05-08T10:59:47.094Z,6.95
2023-05-08T11:00:57.624Z,6.75
2023-05-08T11:02:06.048Z,5.93
2023-05-08T11:03:20.132Z,6.88
2023-05-08T11:04:29.371Z,6.90
2023-05-08T11:05:31.181Z,7.10
2023-05-08T11:06:45.479Z,6.75
2023-05-08T11:07:57.340Z,6.85
2023-05-08T11:09:00.605Z,7.55
2023-05-08T11:10:14.123Z,6.85
2023-05-08T11:11:31.573Z,7.18
2023-05-08T11:12:33.966Z,7.00
2023-05-08T11:13:38.662Z,7.40
2023-05-08T11:14:42.759Z,7.63
2023-05-08T11:15:50.567Z,7.38
2023-05-08T11:16:55.244Z,7.55
2023-05-08T11:17:56.883Z,7.70
2023-05-08T11:19:18.439Z,7.20
2023-05-08T11:20:23.711Z,7.10
2023-05-08T11:21:25.414Z,6.93
2023-05-08T11:22:29.170Z,7.03
2023-05-08T11:23:32.560Z,6.70
2023-05-08T11:24:38.223Z,7.78
2023-05-08T11:25:44.306Z,7.10
2023-05-08T11:26:49.041Z,7.35
2023-05-08T11:27:50.682Z,8.10
2023-05-08T11:28:58.575Z,8.02
2023-05-08T11:30:22.934Z,7.15
2023-05-08T11:31:27.697Z,6.18
2023-05-08T11:32:58.010Z,6.95
2023-05-08T11:33:59.648Z,7.05
2023-05-08T11:35:01.185Z,6.80
2023-05-08T11:36:14.107Z,6.97
2023-05-08T11:37:25.526Z,7.03
2023-05-08T11:38:28.494Z,7.60
2023-05-08T11:39:30.058Z,7.32
2023-05-08T11:40:53.312Z,7.43
2023-05-08T11:41:55.150Z,7.85
2023-05-08T11:43:02.424Z,7.70
2023-05-08T11:44:09.414Z,7.45
2023-05-08T11:45:14.146Z,7.20
2023-05-08T11:46:17.602Z,7.53
2023-05-08T11:47:21.595Z,7.75
2023-05-08T11:49:55.531Z,8.18
2023-05-08T11:50:57.273Z,7.38
2023-05-08T11:51:59.618Z,7.32
2023-05-08T11:53:01.771Z,7.10
2023-05-08T11:54:04.415Z,6.85
2023-05-08T11:55:17.325Z,7.10
2023-05-08T11:56:19.140Z,6.85
2023-05-08T11:57:21.013Z,6.32
2023-05-08T11:58:22.684Z,7.68
2023-05-08T11:59:24.321Z,7.32
2023-05-08T12:00:29.096Z,6.72
2023-05-08T12:01:33.332Z,6.47
2023-05-08T12:02:36.967Z,7.20
2023-05-08T12:03:38.669Z,7.25
2023-05-08T12:04:45.519Z,12.43
2023-05-08T12:05:50.198Z,7.35
2023-05-08T12:06:57.573Z,7.32
2023-05-08T12:07:59.722Z,6.63
2023-05-08T12:09:02.266Z,6.90
2023-05-08T12:10:03.985Z,6.85
2023-05-08T12:11:12.104Z,7.18
2023-05-08T12:12:13.691Z,6.75
2023-05-08T12:13:35.772Z,6.32
2023-05-08T12:14:37.340Z,6.18
2023-05-08T12:15:38.873Z,6.25
2023-05-08T12:16:46.934Z,6.20
2023-05-08T12:17:48.675Z,6.03
2023-05-08T12:18:51.836Z,6.82
2023-05-08T12:19:56.713Z,6.05
2023-05-08T12:21:00.542Z,6.20
2023-05-08T12:22:05.486Z,5.53
2023-05-08T12:23:07.155Z,5.70
2023-05-08T12:24:11.304Z,5.32
2023-05-08T12:25:16.161Z,5.78
2023-05-08T12:26:18.010Z,5.22
2023-05-08T12:27:23.413Z,5.60
2023-05-08T12:28:24.959Z,5.70
2023-05-08T12:29:26.525Z,5.43
2023-05-08T12:30:28.257Z,4.88
2023-05-08T12:31:30.077Z,5.20
2023-05-08T12:32:35.023Z,5.00
2023-05-08T12:33:38.628Z,5.50
2023-05-08T12:34:40.284Z,5.40
2023-05-08T12:35:42.134Z,4.80
2023-05-08T12:36:43.691Z,5.68
2023-05-08T12:37:46.418Z,5.65
2023-05-08T12:38:47.995Z,5.50
2023-05-08T12:39:49.508Z,5.13
2023-05-08T12:40:53.140Z,5.10
2023-05-08T12:41:54.699Z,4.90
2023-05-08T12:44:31.574Z,5.25
2023-05-08T12:45:35.812Z,4.45
2023-05-08T12:46:45.763Z,4.85
2023-05-08T12:47:51.999Z,4.97
2023-05-08T12:49:01.560Z,5.35
2023-05-08T12:50:10.172Z,5.68
2023-05-08T12:51:12.100Z,4.50
2023-05-08T12:52:13.946Z,4.97
2023-05-08T12:53:17.993Z,5.15
2023-05-08T12:54:19.944Z,4.85
2023-05-08T12:55:30.368Z,4.63
2023-05-08T12:56:32.057Z,4.40
2023-05-08T12:57:37.038Z,4.90
2023-05-08T12:58:38.596Z,4.47
2023-05-08T12:59:41.324Z,4.43
2023-05-08T13:00:42.864Z,4.20
2023-05-08T13:01:50.910Z,4.72
2023-05-08T13:02:56.221Z,4.65
2023-05-08T13:04:02.166Z,4.60
2023-05-08T13:05:05.890Z,5.10
2023-05-08T13:06:08.287Z,5.03
2023-05-08T13:07:10.170Z,4.03
2023-05-08T13:08:11.835Z,4.28
2023-05-08T13:09:18.537Z,4.30
2023-05-08T13:10:23.021Z,4.75
2023-05-08T13:11:31.403Z,4.40
2023-05-08T13:12:33.013Z,7.55
2023-05-08T13:13:37.198Z,6.88
2023-05-08T13:14:39.716Z,4.90
2023-05-08T13:15:41.935Z,4.88
2023-05-08T13:16:45.381Z,4.35
2023-05-08T13:17:47.204Z,6.30
2023-05-08T13:18:48.777Z,14.65
2023-05-08T13:19:50.468Z,6.78
2023-05-08T13:20:52.173Z,8.73
2023-05-08T13:21:53.772Z,4.60
2023-05-08T13:22:55.411Z,4.30
2023-05-08T13:23:57.132Z,4.40
2023-05-08T13:24:58.743Z,4.47
2023-05-08T13:26:00.632Z,3.90
2023-05-08T13:27:03.145Z,4.47
2023-05-08T13:28:05.546Z,4.00
2023-05-08T13:29:07.196Z,4.47
2023-05-08T13:30:09.074Z,4.57
2023-05-08T13:31:10.577Z,5.00
2023-05-08T13:32:12.267Z,4.95
2023-05-08T13:33:14.016Z,7.15
2023-05-08T13:34:15.541Z,5.00
2023-05-08T13:35:18.158Z,4.70
2023-05-08T13:36:20.975Z,8.05
2023-05-08T13:37:22.546Z,5.28
2023-05-08T13:38:24.035Z,4.32
2023-05-08T13:39:25.549Z,5.70
2023-05-08T13:40:27.639Z,4.07
2023-05-08T13:41:29.167Z,4.30
2023-05-08T13:42:30.697Z,5.47
2023-05-08T13:43:32.259Z,5.20
2023-05-08T13:44:33.870Z,4.43
2023-05-08T13:45:35.519Z,4.28
2023-05-08T13:46:37.145Z,4.40
2023-05-08T13:47:38.880Z,3.63
2023-05-08T13:48:40.395Z,4.25
2023-05-08T13:49:42.005Z,4.13
2023-05-08T13:50:43.555Z,4.07
2023-05-08T13:51:47.205Z,7.40
2023-05-08T13:52:52.279Z,5.43
2023-05-08T13:53:56.183Z,4.65
2023-05-08T13:54:58.310Z,4.40
2023-05-08T13:56:00.875Z,4.40
2023-05-08T13:57:02.731Z,4.78
2023-05-08T13:58:04.351Z,4.78
2023-05-08T13:59:05.862Z,4.03
2023-05-08T14:00:09.249Z,4.20
2023-05-08T14:01:24.838Z,10.73
2023-05-08T14:02:28.448Z,4.75
2023-05-08T14:03:30.212Z,4.53
2023-05-08T14:04:31.992Z,4.60
2023-05-08T14:05:34.745Z,4.30
2023-05-08T14:06:36.438Z,4.47
2023-05-08T14:07:38.029Z,4.03
2023-05-08T14:08:45.137Z,4.72
2023-05-08T14:09:47.602Z,4.20
2023-05-08T14:10:49.146Z,3.80
2023-05-08T14:11:50.762Z,3.67
2023-05-08T14:12:52.339Z,3.72
2023-05-08T14:13:53.885Z,4.40
2023-05-08T14:14:55.546Z,3.97
2023-05-08T14:15:57.141Z,3.70
2023-05-08T14:16:58.852Z,4.10
2023-05-08T14:18:00.423Z,3.70